القاهرة, مصر

03:38 AM EET on êواêر 22, 2017 (GMT +0200)
Cairo | | Change Station

Elev 243 ft 30.13 °N, 31.40 °E | Updated 8 minutes ago

صافية
صافية
50 °F
Feels Like 50 °F
N
6
ريح متغير ريح from ENE

هذا اليوم
High -- | Low -- °F
--% Chance of Precip.
Yesterday
High -- | Low -- °F
Precip. -- في
الضغط 30.18 في
وضوح الرؤية -9999.0 أميال
سحابات
نقطة الندى 43 °F
الرطوبة 76%
Rainfall 0.00 في
عمق الثلج Not available.
6:50 AM 5:22 PM
الهلال الأخير, 30% visible
METAR HECA 220130Z 07005KT CAVOK 10/06 Q1022 NOSIG
الضغط 30.18 في
وضوح الرؤية -9999.0 أميال
سحابات
نقطة الندى 43 °F
الرطوبة 76%
Rainfall 0.00 في
عمق الثلج Not available.
6:50 AM 5:22 PM
الهلال الأخير, 30% visible
METAR HECA 220130Z 07005KT CAVOK 10/06 Q1022 NOSIG

Get Your Daily Forecast Email!

Thanks for signing up!

Be on the lookout for a verification email in your inbox.

You'll start receiving the daily forecast at 8 AM.

×

10-Day Weather Forecast

No radar image for this location.
×

Almanac

علم الفلك

Jan. 22, 2017 Rise Set
Actual Time
Civil Twilight
Nautical Twilight
Astronomical Twilight
قمر
Length Of Visible Light
طول الیوم
Tomorrow will be .
, % of the Moon is Illuminated

Today's Extremes

Country Highs Country Lows

Community

WunderPhotos

Upload Photos

1,962,540 photos uploaded!

WunderBlog® & News

Nearby

جودة الهواء

  جودة الهواء AQ Index Pollutant
Not available.

عمق الثلج

Station Depth Elevation

Earthquake Activity

City Distance Mag. Time & Date
Minimum magnitude displayed is 2.5.

Coastal Water Temperatures

مكان درجات الحرارة

Stations

Nearby Weather Stations

Station Location الحرارة رياح باردة نقطة الندى الرطوبة ريح Precip. Elev تحديث Type